Ubatuba, Brazil
Current Conditions -  °F | °C
As of 7:00 PM on Sunday 19 Oct 2014 (Local Time) from SBGW Reporting Station
Thunderstorm Thunderstorm  
Wind Chill: 82°   Ceiling: Unl
Heat Index: 82°   Visibility: 5mi
Dew Point: 59°   Wind: 10mph
Humidity: 45%   Direction: 70°ENE
Pressure: 29.88"   Gusts: NA
Location:  23.45°S, 45.08°W
Report Text: SBGW 192200Z 07009KT 8000 -TSRA SCT030 FEW040CB 28/15 Q1012
Loading
Personal Weather Stations






























Interactive Weather Map
Tropical Storm Tracking
New forecast layout! Learn more

10-Day Weather Forecast

Advertisements
Track Severe Weather on mobile